Queets, Washington
Current Conditions -  °F | °C
As of 5:53 PM on Friday 28 Nov 2014 (Local Time) from KUIL Reporting Station
Overcast Overcast  
Wind Chill: 35°   Ceiling: 5000
Heat Index: 41°   Visibility: 8mi
Dew Point: 30°   Wind: 9mph
Humidity: 65%   Direction: 290°WNW
Pressure: 29.53"   Gusts: NA
Location:  47.9519°N, 124.29°W
Report Text: KUIL 290153Z AUTO 29008KT 8SM SCT043 OVC050 05/M01 A2953 RMK AO2 SLP999 T00501011
Loading
Personal Weather Stations






























Interactive Weather Map New forecast layout! Learn more

10-Day Weather Forecast

Advertisements
Track Severe Weather on mobile